sensor_id;sensor_type;location;lat;lon;timestamp;pressure;altitude;pressure_sealevel;temperature;humidity
11676;BME280;5894;42.768;23.404;2022-09-28T00:01:41;94604.22;;;13.87;100.00
11676;BME280;5894;42.768;23.404;2022-09-28T00:04:10;94617.72;;;13.82;100.00
11676;BME280;5894;42.768;23.404;2022-09-28T00:06:38;94659.53;;;14.23;100.00
11676;BME280;5894;42.768;23.404;2022-09-28T00:09:04;94659.91;;;14.22;100.00
11676;BME280;5894;42.768;23.404;2022-09-28T00:11:31;94661.41;;;14.23;100.00
11676;BME280;5894;42.768;23.404;2022-09-28T00:14:00;94653.41;;;14.19;100.00
11676;BME280;5894;42.768;23.404;2022-09-28T00:16:30;94653.75;;;14.18;100.00
11676;BME280;5894;42.768;23.404;2022-09-28T00:18:57;94632.03;;;14.12;100.00
11676;BME280;5894;42.768;23.404;2022-09-28T00:21:27;94675.06;;;14.21;100.00
11676;BME280;5894;42.768;23.404;2022-09-28T00:23:56;94662.63;;;14.25;100.00
11676;BME280;5894;42.768;23.404;2022-09-28T00:26:44;94648.59;;;14.25;100.00
11676;BME280;5894;42.768;23.404;2022-09-28T00:29:18;94649.38;;;14.25;100.00
11676;BME280;5894;42.768;23.404;2022-09-28T00:31:45;94622.91;;;13.94;100.00
11676;BME280;5894;42.768;23.404;2022-09-28T00:34:14;94650.09;;;14.07;100.00
11676;BME280;5894;42.768;23.404;2022-09-28T00:36:44;94641.47;;;14.10;100.00
11676;BME280;5894;42.768;23.404;2022-09-28T00:39:13;94634.38;;;13.98;100.00
11676;BME280;5894;42.768;23.404;2022-09-28T00:41:45;94602.75;;;13.89;100.00
11676;BME280;5894;42.768;23.404;2022-09-28T00:44:40;94642.31;;;13.98;100.00
11676;BME280;5894;42.768;23.404;2022-09-28T00:47:39;94630.63;;;13.99;100.00
11676;BME280;5894;42.768;23.404;2022-09-28T00:50:13;94639.53;;;13.91;100.00
11676;BME280;5894;42.768;23.404;2022-09-28T00:52:45;94650.38;;;13.86;100.00
11676;BME280;5894;42.768;23.404;2022-09-28T00:55:15;94639.78;;;13.86;100.00
11676;BME280;5894;42.768;23.404;2022-09-28T00:57:45;94650.72;;;13.84;100.00
11676;BME280;5894;42.768;23.404;2022-09-28T01:00:14;94647.03;;;13.89;100.00
11676;BME280;5894;42.768;23.404;2022-09-28T01:02:41;94636.09;;;13.90;100.00
11676;BME280;5894;42.768;23.404;2022-09-28T01:05:10;94631.81;;;13.86;100.00
11676;BME280;5894;42.768;23.404;2022-09-28T01:07:37;94638.22;;;13.85;100.00
11676;BME280;5894;42.768;23.404;2022-09-28T01:10:07;94636.34;;;13.85;100.00
11676;BME280;5894;42.768;23.404;2022-09-28T01:12:38;94635.84;;;13.80;100.00
11676;BME280;5894;42.768;23.404;2022-09-28T01:15:08;94635.75;;;13.76;100.00
11676;BME280;5894;42.768;23.404;2022-09-28T01:17:44;94642.50;;;13.74;100.00
11676;BME280;5894;42.768;23.404;2022-09-28T01:20:26;94648.00;;;13.65;100.00
11676;BME280;5894;42.768;23.404;2022-09-28T01:23:24;94651.66;;;13.60;100.00
11676;BME280;5894;42.768;23.404;2022-09-28T01:28:53;94599.38;;;13.26;100.00
11676;BME280;5894;42.768;23.404;2022-09-28T01:31:28;94636.81;;;13.56;100.00
11676;BME280;5894;42.768;23.404;2022-09-28T01:33:59;94583.81;;;13.25;100.00
11676;BME280;5894;42.768;23.404;2022-09-28T01:36:33;94638.25;;;13.53;100.00
11676;BME280;5894;42.768;23.404;2022-09-28T01:39:05;94643.03;;;13.48;100.00
11676;BME280;5894;42.768;23.404;2022-09-28T01:41:36;94626.78;;;13.18;100.00
11676;BME280;5894;42.768;23.404;2022-09-28T01:44:09;94648.47;;;13.39;100.00
11676;BME280;5894;42.768;23.404;2022-09-28T01:46:39;94652.66;;;13.40;100.00
11676;BME280;5894;42.768;23.404;2022-09-28T01:49:12;94651.50;;;13.38;100.00
11676;BME280;5894;42.768;23.404;2022-09-28T01:51:48;94652.50;;;13.33;100.00
11676;BME280;5894;42.768;23.404;2022-09-28T01:54:20;94662.91;;;13.26;100.00
11676;BME280;5894;42.768;23.404;2022-09-28T01:56:51;94668.09;;;13.22;100.00
11676;BME280;5894;42.768;23.404;2022-09-28T01:59:25;94671.56;;;13.11;100.00
11676;BME280;5894;42.768;23.404;2022-09-28T02:01:58;94673.56;;;13.14;100.00
11676;BME280;5894;42.768;23.404;2022-09-28T02:04:30;94678.25;;;13.20;100.00
11676;BME280;5894;42.768;23.404;2022-09-28T02:07:03;94681.78;;;13.25;100.00
11676;BME280;5894;42.768;23.404;2022-09-28T02:09:34;94645.53;;;13.13;100.00
11676;BME280;5894;42.768;23.404;2022-09-28T02:12:08;94675.13;;;13.31;100.00
11676;BME280;5894;42.768;23.404;2022-09-28T02:14:40;94671.63;;;13.27;100.00
11676;BME280;5894;42.768;23.404;2022-09-28T02:17:10;94668.06;;;13.35;100.00
11676;BME280;5894;42.768;23.404;2022-09-28T02:19:38;94680.09;;;13.32;100.00
11676;BME280;5894;42.768;23.404;2022-09-28T02:22:12;94659.94;;;13.28;100.00
11676;BME280;5894;42.768;23.404;2022-09-28T02:24:53;94667.88;;;13.28;100.00
11676;BME280;5894;42.768;23.404;2022-09-28T02:27:30;94679.56;;;13.27;100.00
11676;BME280;5894;42.768;23.404;2022-09-28T02:30:01;94674.44;;;13.18;100.00
11676;BME280;5894;42.768;23.404;2022-09-28T02:32:31;94686.81;;;13.14;100.00
11676;BME280;5894;42.768;23.404;2022-09-28T02:35:00;94684.72;;;13.07;100.00
11676;BME280;5894;42.768;23.404;2022-09-28T02:37:27;94683.47;;;13.17;100.00
11676;BME280;5894;42.768;23.404;2022-09-28T02:39:54;94681.88;;;13.28;100.00
11676;BME280;5894;42.768;23.404;2022-09-28T02:42:25;94677.78;;;13.31;100.00
11676;BME280;5894;42.768;23.404;2022-09-28T02:45:09;94671.63;;;13.27;100.00
11676;BME280;5894;42.768;23.404;2022-09-28T02:47:54;94674.28;;;13.27;100.00
11676;BME280;5894;42.768;23.404;2022-09-28T02:50:29;94673.75;;;13.21;100.00
11676;BME280;5894;42.768;23.404;2022-09-28T02:53:24;94673.00;;;13.08;100.00
11676;BME280;5894;42.768;23.404;2022-09-28T02:56:09;94675.56;;;13.05;100.00
11676;BME280;5894;42.768;23.404;2022-09-28T02:58:50;94681.38;;;13.10;100.00
11676;BME280;5894;42.768;23.404;2022-09-28T03:01:27;94683.81;;;13.15;100.00
11676;BME280;5894;42.768;23.404;2022-09-28T03:04:01;94697.69;;;13.12;100.00
11676;BME280;5894;42.768;23.404;2022-09-28T03:06:37;94690.94;;;13.27;100.00
11676;BME280;5894;42.768;23.404;2022-09-28T03:09:11;94691.84;;;13.19;100.00
11676;BME280;5894;42.768;23.404;2022-09-28T03:11:45;94690.53;;;13.13;100.00
11676;BME280;5894;42.768;23.404;2022-09-28T03:14:13;94688.84;;;13.20;100.00
11676;BME280;5894;42.768;23.404;2022-09-28T03:16:49;94689.97;;;13.19;100.00
11676;BME280;5894;42.768;23.404;2022-09-28T03:19:19;94699.69;;;13.15;100.00
11676;BME280;5894;42.768;23.404;2022-09-28T03:21:50;94699.13;;;13.10;100.00
11676;BME280;5894;42.768;23.404;2022-09-28T03:24:17;94697.50;;;13.05;100.00
11676;BME280;5894;42.768;23.404;2022-09-28T03:26:44;94697.94;;;13.07;100.00
11676;BME280;5894;42.768;23.404;2022-09-28T03:29:12;94695.19;;;13.04;100.00
11676;BME280;5894;42.768;23.404;2022-09-28T03:31:40;94701.00;;;13.09;100.00
11676;BME280;5894;42.768;23.404;2022-09-28T03:34:09;94703.44;;;13.14;100.00
11676;BME280;5894;42.768;23.404;2022-09-28T03:36:36;94705.53;;;13.09;100.00
11676;BME280;5894;42.768;23.404;2022-09-28T03:39:03;94701.16;;;13.01;100.00
11676;BME280;5894;42.768;23.404;2022-09-28T03:41:30;94710.41;;;13.07;100.00
11676;BME280;5894;42.768;23.404;2022-09-28T03:43:57;94705.44;;;13.17;100.00
11676;BME280;5894;42.768;23.404;2022-09-28T03:46:26;94711.91;;;13.20;100.00
11676;BME280;5894;42.768;23.404;2022-09-28T03:48:56;94704.75;;;13.20;100.00
11676;BME280;5894;42.768;23.404;2022-09-28T03:51:25;94711.59;;;13.09;100.00
11676;BME280;5894;42.768;23.404;2022-09-28T03:53:56;94711.94;;;13.08;100.00
11676;BME280;5894;42.768;23.404;2022-09-28T03:56:23;94719.78;;;13.16;100.00
11676;BME280;5894;42.768;23.404;2022-09-28T03:58:49;94718.75;;;13.21;100.00
11676;BME280;5894;42.768;23.404;2022-09-28T04:01:17;94716.97;;;13.25;100.00
11676;BME280;5894;42.768;23.404;2022-09-28T04:03:46;94714.22;;;13.21;100.00
11676;BME280;5894;42.768;23.404;2022-09-28T04:06:13;94715.66;;;13.19;100.00
11676;BME280;5894;42.768;23.404;2022-09-28T04:08:41;94716.44;;;13.19;100.00
11676;BME280;5894;42.768;23.404;2022-09-28T04:11:08;94712.69;;;13.20;100.00
11676;BME280;5894;42.768;23.404;2022-09-28T04:13:35;94711.56;;;13.21;100.00
11676;BME280;5894;42.768;23.404;2022-09-28T04:16:03;94713.66;;;13.28;100.00
11676;BME280;5894;42.768;23.404;2022-09-28T04:18:32;94715.16;;;13.29;100.00
11676;BME280;5894;42.768;23.404;2022-09-28T04:21:11;94718.59;;;13.30;100.00
11676;BME280;5894;42.768;23.404;2022-09-28T04:23:46;94720.47;;;13.29;100.00
11676;BME280;5894;42.768;23.404;2022-09-28T04:26:16;94713.66;;;13.28;100.00
11676;BME280;5894;42.768;23.404;2022-09-28T04:28:45;94725.53;;;13.34;100.00
11676;BME280;5894;42.768;23.404;2022-09-28T04:31:30;94715.38;;;13.36;100.00
11676;BME280;5894;42.768;23.404;2022-09-28T04:34:03;94714.94;;;13.34;100.00
11676;BME280;5894;42.768;23.404;2022-09-28T04:36:31;94713.28;;;13.30;100.00
11676;BME280;5894;42.768;23.404;2022-09-28T04:39:02;94713.72;;;13.32;100.00
11676;BME280;5894;42.768;23.404;2022-09-28T04:41:31;94716.72;;;13.30;100.00
11676;BME280;5894;42.768;23.404;2022-09-28T04:43:58;94712.97;;;13.31;100.00
11676;BME280;5894;42.768;23.404;2022-09-28T04:46:25;94715.44;;;13.24;100.00
11676;BME280;5894;42.768;23.404;2022-09-28T04:49:21;94727.13;;;13.23;100.00
11676;BME280;5894;42.768;23.404;2022-09-28T04:51:51;94723.03;;;13.26;100.00
11676;BME280;5894;42.768;23.404;2022-09-28T04:54:20;94717.47;;;13.31;100.00
11676;BME280;5894;42.768;23.404;2022-09-28T04:56:46;94711.84;;;13.32;100.00
11676;BME280;5894;42.768;23.404;2022-09-28T04:59:13;94708.88;;;13.34;100.00
11676;BME280;5894;42.768;23.404;2022-09-28T05:01:41;94711.84;;;13.32;100.00
11676;BME280;5894;42.768;23.404;2022-09-28T05:04:27;94722.44;;;13.32;100.00
11676;BME280;5894;42.768;23.404;2022-09-28T05:07:13;94714.50;;;13.32;100.00
11676;BME280;5894;42.768;23.404;2022-09-28T05:09:41;94704.00;;;13.36;100.00
11676;BME280;5894;42.768;23.404;2022-09-28T05:12:08;94706.31;;;13.37;100.00
11676;BME280;5894;42.768;23.404;2022-09-28T05:14:36;94706.41;;;13.41;100.00
11676;BME280;5894;42.768;23.404;2022-09-28T05:17:03;94706.50;;;13.44;100.00
11676;BME280;5894;42.768;23.404;2022-09-28T05:19:52;94710.34;;;13.47;100.00
11676;BME280;5894;42.768;23.404;2022-09-28T05:22:20;94720.63;;;13.48;100.00
11676;BME280;5894;42.768;23.404;2022-09-28T05:24:48;94713.50;;;13.52;100.00
11676;BME280;5894;42.768;23.404;2022-09-28T05:27:16;94706.00;;;13.54;100.00
11676;BME280;5894;42.768;23.404;2022-09-28T05:29:50;94715.59;;;13.59;100.00
11676;BME280;5894;42.768;23.404;2022-09-28T05:32:23;94722.84;;;13.62;100.00
11676;BME280;5894;42.768;23.404;2022-09-28T05:35:03;94730.56;;;13.67;100.00
11676;BME280;5894;42.768;23.404;2022-09-28T05:37:39;94723.72;;;13.66;100.00
11676;BME280;5894;42.768;23.404;2022-09-28T05:40:09;94728.25;;;13.66;100.00
11676;BME280;5894;42.768;23.404;2022-09-28T05:42:41;94718.31;;;13.63;100.00
11676;BME280;5894;42.768;23.404;2022-09-28T05:45:08;94722.16;;;13.65;100.00
11676;BME280;5894;42.768;23.404;2022-09-28T05:47:39;94733.28;;;13.71;100.00
11676;BME280;5894;42.768;23.404;2022-09-28T05:50:08;94740.97;;;13.76;100.00
11676;BME280;5894;42.768;23.404;2022-09-28T05:52:36;94747.81;;;13.77;100.00
11676;BME280;5894;42.768;23.404;2022-09-28T05:55:08;94755.16;;;13.83;100.00
11676;BME280;5894;42.768;23.404;2022-09-28T05:57:35;94746.00;;;13.81;100.00
11676;BME280;5894;42.768;23.404;2022-09-28T06:00:03;94742.34;;;13.85;100.00
11676;BME280;5894;42.768;23.404;2022-09-28T06:02:38;94735.63;;;13.88;100.00
11676;BME280;5894;42.768;23.404;2022-09-28T06:05:08;94756.31;;;13.98;100.00
11676;BME280;5894;42.768;23.404;2022-09-28T06:07:35;94748.00;;;14.00;100.00
11676;BME280;5894;42.768;23.404;2022-09-28T06:10:03;94748.41;;;14.02;100.00
11676;BME280;5894;42.768;23.404;2022-09-28T06:12:39;94755.25;;;14.03;100.00
11676;BME280;5894;42.768;23.404;2022-09-28T06:15:11;94760.56;;;14.03;100.00
11676;BME280;5894;42.768;23.404;2022-09-28T06:17:38;94776.56;;;14.06;100.00
11676;BME280;5894;42.768;23.404;2022-09-28T06:20:34;94764.53;;;14.09;100.00
11676;BME280;5894;42.768;23.404;2022-09-28T06:23:13;94767.75;;;14.18;100.00
11676;BME280;5894;42.768;23.404;2022-09-28T06:25:40;94773.16;;;14.21;100.00
11676;BME280;5894;42.768;23.404;2022-09-28T06:28:11;94771.28;;;14.22;100.00
11676;BME280;5894;42.768;23.404;2022-09-28T06:30:41;94771.78;;;14.27;100.00
11676;BME280;5894;42.768;23.404;2022-09-28T06:33:12;94765.47;;;14.32;100.00
11676;BME280;5894;42.768;23.404;2022-09-28T06:35:40;94754.47;;;14.33;100.00
11676;BME280;5894;42.768;23.404;2022-09-28T06:38:08;94761.41;;;14.38;100.00
11676;BME280;5894;42.768;23.404;2022-09-28T06:40:36;94748.63;;;14.40;100.00
11676;BME280;5894;42.768;23.404;2022-09-28T06:43:05;94724.81;;;14.28;100.00
11676;BME280;5894;42.768;23.404;2022-09-28T06:45:54;94775.03;;;14.52;100.00
11676;BME280;5894;42.768;23.404;2022-09-28T06:48:40;94769.81;;;14.56;100.00
11676;BME280;5894;42.768;23.404;2022-09-28T06:51:10;94762.28;;;14.58;100.00
11676;BME280;5894;42.768;23.404;2022-09-28T06:53:55;94759.00;;;14.64;100.00
11676;BME280;5894;42.768;23.404;2022-09-28T06:56:41;94755.56;;;14.64;100.00
11676;BME280;5894;42.768;23.404;2022-09-28T06:59:09;94760.38;;;14.74;100.00
11676;BME280;5894;42.768;23.404;2022-09-28T07:01:38;94755.53;;;14.80;100.00
11676;BME280;5894;42.768;23.404;2022-09-28T07:04:25;94753.03;;;14.87;100.00
11676;BME280;5894;42.768;23.404;2022-09-28T07:07:10;94748.16;;;14.89;100.00
11676;BME280;5894;42.768;23.404;2022-09-28T07:10:04;94747.94;;;14.97;100.00
11676;BME280;5894;42.768;23.404;2022-09-28T07:12:44;94755.69;;;15.06;100.00
11676;BME280;5894;42.768;23.404;2022-09-28T07:15:23;94758.94;;;15.15;100.00
11676;BME280;5894;42.768;23.404;2022-09-28T07:17:56;94767.47;;;15.24;100.00
11676;BME280;5894;42.768;23.404;2022-09-28T07:20:23;94771.81;;;15.32;100.00
11676;BME280;5894;42.768;23.404;2022-09-28T07:22:52;94781.38;;;15.37;100.00
11676;BME280;5894;42.768;23.404;2022-09-28T07:25:20;94778.09;;;15.43;100.00
11676;BME280;5894;42.768;23.404;2022-09-28T07:28:20;94775.56;;;15.51;100.00
11676;BME280;5894;42.768;23.404;2022-09-28T07:31:06;94774.59;;;15.59;100.00
11676;BME280;5894;42.768;23.404;2022-09-28T07:33:54;94781.53;;;15.63;100.00
11676;BME280;5894;42.768;23.404;2022-09-28T07:36:41;94786.63;;;15.72;100.00
11676;BME280;5894;42.768;23.404;2022-09-28T07:39:07;94782.19;;;15.79;100.00
11676;BME280;5894;42.768;23.404;2022-09-28T07:41:36;94784.22;;;15.86;100.00
11676;BME280;5894;42.768;23.404;2022-09-28T07:44:05;94793.03;;;15.90;100.00
11676;BME280;5894;42.768;23.404;2022-09-28T07:46:34;94790.44;;;15.94;100.00
11676;BME280;5894;42.768;23.404;2022-09-28T07:49:29;94772.59;;;15.94;100.00
11676;BME280;5894;42.768;23.404;2022-09-28T07:52:34;94778.44;;;16.03;100.00
11676;BME280;5894;42.768;23.404;2022-09-28T07:55:10;94784.25;;;16.09;100.00
11676;BME280;5894;42.768;23.404;2022-09-28T07:57:56;94788.13;;;16.15;100.00
11676;BME280;5894;42.768;23.404;2022-09-28T08:00:36;94782.50;;;16.20;100.00
11676;BME280;5894;42.768;23.404;2022-09-28T08:03:03;94778.09;;;16.28;100.00
11676;BME280;5894;42.768;23.404;2022-09-28T08:05:33;94774.41;;;16.36;100.00
11676;BME280;5894;42.768;23.404;2022-09-28T08:08:01;94771.44;;;16.41;100.00
11676;BME280;5894;42.768;23.404;2022-09-28T08:10:30;94771.50;;;16.44;100.00
11676;BME280;5894;42.768;23.404;2022-09-28T08:12:58;94762.09;;;16.50;100.00
11676;BME280;5894;42.768;23.404;2022-09-28T08:15:41;94762.63;;;16.60;100.00
11676;BME280;5894;42.768;23.404;2022-09-28T08:18:25;94765.75;;;16.65;100.00
11676;BME280;5894;42.768;23.404;2022-09-28T08:20:53;94767.75;;;16.72;100.00
11676;BME280;5894;42.768;23.404;2022-09-28T08:23:37;94763.56;;;16.71;100.00
11676;BME280;5894;42.768;23.404;2022-09-28T08:26:50;94770.56;;;16.82;100.00
11676;BME280;5894;42.768;23.404;2022-09-28T08:29:19;94778.97;;;16.84;100.00
11676;BME280;5894;42.768;23.404;2022-09-28T08:31:56;94776.72;;;16.86;100.00
11676;BME280;5894;42.768;23.404;2022-09-28T08:34:33;94782.03;;;16.86;100.00
11676;BME280;5894;42.768;23.404;2022-09-28T08:37:05;94780.22;;;16.94;100.00
11676;BME280;5894;42.768;23.404;2022-09-28T08:39:51;94784.06;;;16.97;100.00
11676;BME280;5894;42.768;23.404;2022-09-28T08:42:42;94755.75;;;16.85;100.00
11676;BME280;5894;42.768;23.404;2022-09-28T08:45:11;94770.13;;;17.07;100.00
11676;BME280;5894;42.768;23.404;2022-09-28T08:48:11;94774.06;;;17.16;100.00
11676;BME280;5894;42.768;23.404;2022-09-28T08:51:17;94773.38;;;17.23;100.00
11676;BME280;5894;42.768;23.404;2022-09-28T08:54:11;94765.13;;;17.35;100.00
11676;BME280;5894;42.768;23.404;2022-09-28T08:56:53;94774.84;;;17.50;100.00
11676;BME280;5894;42.768;23.404;2022-09-28T08:59:23;94740.38;;;17.35;100.00
11676;BME280;5894;42.768;23.404;2022-09-28T09:01:59;94768.88;;;17.60;100.00
11676;BME280;5894;42.768;23.404;2022-09-28T09:04:28;94765.22;;;17.72;100.00
11676;BME280;5894;42.768;23.404;2022-09-28T09:07:38;94763.06;;;17.88;100.00
11676;BME280;5894;42.768;23.404;2022-09-28T09:10:26;94757.84;;;17.99;100.00
11676;BME280;5894;42.768;23.404;2022-09-28T09:13:07;94761.72;;;18.05;100.00
11676;BME280;5894;42.768;23.404;2022-09-28T09:15:48;94765.63;;;18.15;100.00
11676;BME280;5894;42.768;23.404;2022-09-28T09:18:36;94767.59;;;18.25;100.00
11676;BME280;5894;42.768;23.404;2022-09-28T09:21:39;94756.66;;;18.37;100.00
11676;BME280;5894;42.768;23.404;2022-09-28T09:24:21;94754.44;;;18.46;100.00
11676;BME280;5894;42.768;23.404;2022-09-28T09:27:01;94755.25;;;18.54;100.00
11676;BME280;5894;42.768;23.404;2022-09-28T09:29:39;94753.75;;;18.56;100.00
11676;BME280;5894;42.768;23.404;2022-09-28T09:32:28;94759.16;;;18.63;100.00
11676;BME280;5894;42.768;23.404;2022-09-28T09:35:17;94758.41;;;18.66;100.00
11676;BME280;5894;42.768;23.404;2022-09-28T09:38:21;94773.34;;;18.75;100.00
11676;BME280;5894;42.768;23.404;2022-09-28T09:41:13;94741.19;;;18.60;100.00
11676;BME280;5894;42.768;23.404;2022-09-28T09:44:41;94759.31;;;18.92;100.00
11676;BME280;5894;42.768;23.404;2022-09-28T09:47:37;94766.22;;;18.96;100.00
11676;BME280;5894;42.768;23.404;2022-09-28T09:50:35;94763.94;;;18.98;100.00
11676;BME280;5894;42.768;23.404;2022-09-28T09:53:11;94686.97;;;18.53;100.00
11676;BME280;5894;42.768;23.404;2022-09-28T09:55:45;94708.06;;;18.72;100.00
11676;BME280;5894;42.768;23.404;2022-09-28T09:58:38;94749.47;;;19.06;100.00
11676;BME280;5894;42.768;23.404;2022-09-28T10:01:31;94759.09;;;19.18;100.00
11676;BME280;5894;42.768;23.404;2022-09-28T10:04:36;94761.38;;;19.20;100.00
11676;BME280;5894;42.768;23.404;2022-09-28T10:07:21;94757.56;;;19.24;100.00
11676;BME280;5894;42.768;23.404;2022-09-28T10:09:50;94748.81;;;19.34;100.00
11676;BME280;5894;42.768;23.404;2022-09-28T10:12:40;94751.53;;;19.38;100.00
11676;BME280;5894;42.768;23.404;2022-09-28T10:15:12;94750.38;;;19.42;100.00
11676;BME280;5894;42.768;23.404;2022-09-28T10:17:53;94758.06;;;19.48;100.00
11676;BME280;5894;42.768;23.404;2022-09-28T10:20:43;94743.53;;;19.45;100.00
11676;BME280;5894;42.768;23.404;2022-09-28T10:23:24;94742.41;;;19.53;100.00
11676;BME280;5894;42.768;23.404;2022-09-28T10:25:55;94743.59;;;19.59;100.00
11676;BME280;5894;42.768;23.404;2022-09-28T10:28:33;94730.22;;;19.59;100.00
11676;BME280;5894;42.768;23.404;2022-09-28T10:31:32;94732.53;;;19.68;100.00
11676;BME280;5894;42.768;23.404;2022-09-28T10:34:02;94732.56;;;19.71;100.00
11676;BME280;5894;42.768;23.404;2022-09-28T10:36:33;94725.28;;;19.72;100.00
11676;BME280;5894;42.768;23.404;2022-09-28T10:39:24;94718.41;;;19.74;100.00
11676;BME280;5894;42.768;23.404;2022-09-28T10:41:53;94724.16;;;19.84;100.00
11676;BME280;5894;42.768;23.404;2022-09-28T10:44:26;94723.41;;;19.90;100.00
11676;BME280;5894;42.768;23.404;2022-09-28T10:47:05;94708.50;;;19.89;100.00
11676;BME280;5894;42.768;23.404;2022-09-28T10:49:41;94698.16;;;19.88;100.00
11676;BME280;5894;42.768;23.404;2022-09-28T10:52:37;94712.72;;;20.01;100.00
11676;BME280;5894;42.768;23.404;2022-09-28T10:55:25;94699.72;;;20.13;100.00
11676;BME280;5894;42.768;23.404;2022-09-28T10:57:53;94698.19;;;20.23;100.00
11676;BME280;5894;42.768;23.404;2022-09-28T11:00:37;94697.41;;;20.30;100.00
11676;BME280;5894;42.768;23.404;2022-09-28T11:03:24;94679.06;;;20.42;100.00
11676;BME280;5894;42.768;23.404;2022-09-28T11:05:57;94688.25;;;20.52;100.00
11676;BME280;5894;42.768;23.404;2022-09-28T11:08:28;94694.34;;;20.63;100.00
11676;BME280;5894;42.768;23.404;2022-09-28T11:11:05;94693.16;;;20.75;98.42
11676;BME280;5894;42.768;23.404;2022-09-28T11:13:38;94690.06;;;20.91;99.88
11676;BME280;5894;42.768;23.404;2022-09-28T11:16:27;94690.00;;;21.05;100.00
11676;BME280;5894;42.768;23.404;2022-09-28T11:18:55;94680.41;;;21.14;100.00
11676;BME280;5894;42.768;23.404;2022-09-28T11:21:26;94685.00;;;21.17;100.00
11676;BME280;5894;42.768;23.404;2022-09-28T11:24:03;94653.25;;;21.02;97.11
11676;BME280;5894;42.768;23.404;2022-09-28T11:26:42;94683.06;;;21.25;98.51
11676;BME280;5894;42.768;23.404;2022-09-28T11:29:35;94645.22;;;21.05;98.60
11676;BME280;5894;42.768;23.404;2022-09-28T11:32:22;94672.28;;;21.36;99.01
11676;BME280;5894;42.768;23.404;2022-09-28T11:35:15;94668.34;;;21.51;85.70
11676;BME280;5894;42.768;23.404;2022-09-28T11:37:57;94667.53;;;21.61;95.48
11676;BME280;5894;42.768;23.404;2022-09-28T11:40:57;94658.25;;;21.73;98.01
11676;BME280;5894;42.768;23.404;2022-09-28T11:46:28;94658.88;;;21.98;96.29
11676;BME280;5894;42.768;23.404;2022-09-28T11:49:10;94653.03;;;22.10;96.97
11676;BME280;5894;42.768;23.404;2022-09-28T11:51:42;94654.03;;;22.23;98.08
11676;BME280;5894;42.768;23.404;2022-09-28T11:54:23;94659.28;;;22.38;95.64
11676;BME280;5894;42.768;23.404;2022-09-28T11:56:56;94659.50;;;22.54;93.75
11676;BME280;5894;42.768;23.404;2022-09-28T11:59:28;94651.75;;;22.63;92.10
11676;BME280;5894;42.768;23.404;2022-09-28T12:02:01;94654.69;;;22.76;90.74
11676;BME280;5894;42.768;23.404;2022-09-28T12:04:54;94577.19;;;22.37;92.61
11676;BME280;5894;42.768;23.404;2022-09-28T12:07:26;94653.41;;;22.91;91.70
11676;BME280;5894;42.768;23.404;2022-09-28T12:10:02;94657.91;;;22.97;73.66
11676;BME280;5894;42.768;23.404;2022-09-28T12:12:34;94612.50;;;22.73;85.89
11676;BME280;5894;42.768;23.404;2022-09-28T12:15:14;94645.50;;;23.07;84.40
11676;BME280;5894;42.768;23.404;2022-09-28T12:17:47;94634.38;;;23.05;82.85
11676;BME280;5894;42.768;23.404;2022-09-28T12:20:19;94644.59;;;23.17;87.00
11676;BME280;5894;42.768;23.404;2022-09-28T12:22:54;94638.00;;;23.25;88.53
11676;BME280;5894;42.768;23.404;2022-09-28T12:25:33;94632.56;;;23.29;89.81
11676;BME280;5894;42.768;23.404;2022-09-28T12:28:05;94642.16;;;23.30;76.59
11676;BME280;5894;42.768;23.404;2022-09-28T12:30:37;94635.19;;;23.32;75.58
11676;BME280;5894;42.768;23.404;2022-09-28T12:33:07;94632.94;;;23.27;76.66
11676;BME280;5894;42.768;23.404;2022-09-28T12:35:49;94632.16;;;23.30;79.28
11676;BME280;5894;42.768;23.404;2022-09-28T12:38:31;94631.34;;;23.33;83.26
11676;BME280;5894;42.768;23.404;2022-09-28T12:41:07;94627.78;;;23.40;76.43
11676;BME280;5894;42.768;23.404;2022-09-28T12:43:54;94627.78;;;23.40;75.71
11676;BME280;5894;42.768;23.404;2022-09-28T12:46:39;94629.31;;;23.41;79.69
11676;BME280;5894;42.768;23.404;2022-09-28T12:49:27;94635.84;;;23.40;82.37
11676;BME280;5894;42.768;23.404;2022-09-28T12:52:03;94631.56;;;23.46;80.98
11676;BME280;5894;42.768;23.404;2022-09-28T12:54:46;94635.00;;;23.47;75.25
11676;BME280;5894;42.768;23.404;2022-09-28T12:57:39;94625.00;;;23.47;81.98
11676;BME280;5894;42.768;23.404;2022-09-28T13:00:11;94632.28;;;23.47;83.98
11676;BME280;5894;42.768;23.404;2022-09-28T13:06:24;94629.28;;;23.45;88.36
11676;BME280;5894;42.768;23.404;2022-09-28T13:09:08;94627.91;;;23.33;86.61
11676;BME280;5894;42.768;23.404;2022-09-28T13:11:44;94624.88;;;23.27;88.42
11676;BME280;5894;42.768;23.404;2022-09-28T13:14:44;94622.94;;;23.28;82.14
11676;BME280;5894;42.768;23.404;2022-09-28T13:17:23;94621.84;;;23.25;88.11
11676;BME280;5894;42.768;23.404;2022-09-28T13:20:06;94599.13;;;22.99;90.54
11676;BME280;5894;42.768;23.404;2022-09-28T13:22:45;94636.94;;;23.16;91.68
11676;BME280;5894;42.768;23.404;2022-09-28T13:25:19;94620.09;;;23.12;92.71
11676;BME280;5894;42.768;23.404;2022-09-28T13:27:50;94616.16;;;22.89;80.14
11676;BME280;5894;42.768;23.404;2022-09-28T13:30:20;94632.78;;;22.81;81.20
11676;BME280;5894;42.768;23.404;2022-09-28T13:32:47;94640.88;;;22.77;84.88
11676;BME280;5894;42.768;23.404;2022-09-28T13:35:17;94634.78;;;22.69;87.26
11676;BME280;5894;42.768;23.404;2022-09-28T13:37:45;94634.00;;;22.73;90.15
11676;BME280;5894;42.768;23.404;2022-09-28T13:40:12;94610.38;;;22.53;92.73
11676;BME280;5894;42.768;23.404;2022-09-28T13:43:01;94639.03;;;22.67;93.62
11676;BME280;5894;42.768;23.404;2022-09-28T13:45:58;94630.97;;;22.67;94.02
11676;BME280;5894;42.768;23.404;2022-09-28T13:48:37;94619.19;;;22.57;90.56
11676;BME280;5894;42.768;23.404;2022-09-28T13:51:19;94629.50;;;22.62;94.06